台北 の空港の天気 - METARとTAF

台湾桃園国際空港 ( RCTP / TPE ) - 中華民国(台湾) 台北市
飛行場実況気象(Metar)
観測時間01/20 09:30 CST (01/20 01:30 UTC)
風向・風速北東 11m/s
視程10km以上
天気現象弱い雨
少しの雲 雲底高度 300m
全天の8割程度の雲 雲底高度 460m
全天の8割程度の雲 雲底高度 730m
気温13℃
湿度88%
気圧1027hPa
METARRCTP 200130Z 04022KT 9999 -RA FEW010 BKN015 BKN024 13/11 Q1027 NOSIG RMK A3033
過去の天気等 Google飛行場航空写真 Wunderground天気予報

過去48時間のMETAR

飛行場予報(TAF)
発表時間: 1/20 07:00 CST (1/19 23:00 UTC)
予報対象時間: 20日8時 CST ~ 21日14時 CST
風向・風速北東 11m/s
視程10km以上
少しの雲 雲底高度 300m
全天の8割程度の雲 雲底高度 610m
全天の8割程度の雲 雲底高度 1,520m
20日8時 CST ~ 20日12時 CST に一時的に
視程5,000m
天気現象
少しの雲 雲底高度 210m
全天の8割程度の雲 雲底高度 370m
全天の8割程度の雲 雲底高度 910m
20日14時 CST ~ 20日20時 CST に一時的に
少しの雲 雲底高度 460m
全天の8割程度の雲 雲底高度 980m
20日20時 CST ~ 20日22時 CST に徐々に
風向・風速北東 9m/s
少しの雲 雲底高度 460m
全天の8割程度の雲 雲底高度 980m
21日4時 CST ~ 21日10時 CST に一時的に
視程5,000m
天気現象
少しの雲 雲底高度 240m
全天の8割程度の雲 雲底高度 520m
全天の8割程度の雲 雲底高度 1,070m
21日10時 CST ~ 21日12時 CST に徐々に
風向・風速北北東 8m/s
全天の4割程度の雲 雲底高度 210m
全天の8割程度の雲 雲底高度 340m
全天の8割程度の雲 雲底高度 910m
TAF RCTP 192300Z 2000/2106 04022KT 9999 FEW010 BKN020 BKN050
TEMPO 2000/2004 5000 RA FEW007 BKN012 BKN030
TEMPO 2006/2012 FEW015 BKN032
BECMG 2012/2014 05017KT FEW015 BKN032
TEMPO 2020/2102 5000 RA FEW008 BKN017 BKN035
BECMG 2102/2104 02015KT SCT007 BKN011 BKN030